createdAt,value
2023-05-20T00:01:28.523Z,10.87
2023-05-20T00:06:28.422Z,10.95
2023-05-20T00:11:28.387Z,11.03
2023-05-20T00:16:28.427Z,11.1
2023-05-20T00:21:29.554Z,11.12
2023-05-20T00:26:28.498Z,11.13
2023-05-20T00:31:29.850Z,11.15
2023-05-20T00:36:28.447Z,11.13
2023-05-20T00:41:28.366Z,11.09
2023-05-20T00:46:30.386Z,11.07
2023-05-20T00:51:28.626Z,11.07
2023-05-20T00:56:28.693Z,11.04
2023-05-20T01:01:28.459Z,11.09
2023-05-20T01:06:29.208Z,11.14
2023-05-20T01:11:30.944Z,11.16
2023-05-20T01:16:28.668Z,11.14
2023-05-20T01:21:28.827Z,11.13
2023-05-20T01:26:29.176Z,11.15
2023-05-20T01:31:30.373Z,11.21
2023-05-20T01:36:28.993Z,11.22
2023-05-20T01:41:29.590Z,11.19
2023-05-20T01:46:28.446Z,11.11
2023-05-20T01:51:29.579Z,11.07
2023-05-20T01:56:28.555Z,11.05
2023-05-20T02:01:28.668Z,11.06
2023-05-20T02:06:28.850Z,11.09
2023-05-20T02:11:29.160Z,11.07
2023-05-20T02:16:28.545Z,10.96
2023-05-20T02:21:28.887Z,10.79
2023-05-20T02:26:28.797Z,10.62
2023-05-20T02:31:30.130Z,10.46
2023-05-20T02:36:28.665Z,10.32
2023-05-20T02:41:28.512Z,10.15
2023-05-20T02:46:28.656Z,10.05
2023-05-20T02:51:28.555Z,9.9
2023-05-20T02:56:28.695Z,9.78
2023-05-20T03:01:29.097Z,9.71
2023-05-20T03:06:29.832Z,9.65
2023-05-20T03:11:28.545Z,9.55
2023-05-20T03:16:28.953Z,9.47
2023-05-20T03:21:29.207Z,9.36
2023-05-20T03:26:28.826Z,9.26
2023-05-20T03:31:28.559Z,9.26
2023-05-20T03:36:28.557Z,9.17
2023-05-20T03:41:28.559Z,9.07
2023-05-20T03:46:28.657Z,9.1
2023-05-20T03:51:28.597Z,9.14
2023-05-20T03:56:28.650Z,9.16
2023-05-20T04:01:28.896Z,9.21
2023-05-20T04:06:28.583Z,9.32
2023-05-20T04:11:28.569Z,9.38
2023-05-20T04:16:29.394Z,9.46
2023-05-20T04:21:28.641Z,9.59
2023-05-20T04:26:28.936Z,9.72
2023-05-20T04:31:29.306Z,9.89
2023-05-20T04:36:29.397Z,10.03
2023-05-20T04:41:28.614Z,10.45
2023-05-20T04:46:28.621Z,11.13
2023-05-20T04:51:29.369Z,13.32
2023-05-20T04:56:28.738Z,14.31
2023-05-20T05:01:28.714Z,13.61
2023-05-20T05:06:28.691Z,13.51
2023-05-20T05:11:28.689Z,14.12
2023-05-20T05:16:28.764Z,16.04
2023-05-20T05:21:28.692Z,17.52
2023-05-20T05:26:28.711Z,17.98
2023-05-20T05:31:28.691Z,18.2
2023-05-20T05:36:29.143Z,18.12
2023-05-20T05:41:28.695Z,18.27
2023-05-20T05:46:28.954Z,18.66
2023-05-20T05:51:29.162Z,18.5
2023-05-20T05:56:28.884Z,18.84
2023-05-20T06:01:28.764Z,19.43
2023-05-20T06:06:28.738Z,20.69
2023-05-20T06:11:28.685Z,20.23
2023-05-20T06:16:28.769Z,20.49
2023-05-20T06:21:28.853Z,20.4
2023-05-20T06:26:28.687Z,20.24
2023-05-20T06:31:30.221Z,19.74
2023-05-20T06:36:28.836Z,20.03
2023-05-20T06:41:28.719Z,21.5
2023-05-20T06:46:28.848Z,21.07
2023-05-20T06:51:28.743Z,20.95
2023-05-20T06:56:28.806Z,20.57
2023-05-20T07:01:28.850Z,20.74
2023-05-20T07:06:30.523Z,20.92
2023-05-20T07:11:28.768Z,21.86
2023-05-20T07:16:29.512Z,22.13
2023-05-20T07:21:28.780Z,21.29
2023-05-20T07:26:30.732Z,22.2
2023-05-20T07:31:29.160Z,23.26
2023-05-20T07:36:30.632Z,22.69
2023-05-20T07:41:28.843Z,23.37
2023-05-20T07:46:28.852Z,23.07
2023-05-20T07:51:28.837Z,22.03
2023-05-20T07:56:28.963Z,22.7
2023-05-20T08:01:29.009Z,22.88
2023-05-20T08:06:29.965Z,22.12
2023-05-20T08:21:54.586Z,24.73
2023-05-20T08:26:54.538Z,23.91
2023-05-20T08:31:54.599Z,24.28
2023-05-20T08:36:54.509Z,23.95
2023-05-20T08:41:54.641Z,24.29
2023-05-20T08:46:55.675Z,23.91
2023-05-20T08:51:54.643Z,22.07
2023-05-20T08:56:55.873Z,23.16
2023-05-20T09:01:54.639Z,23.81
2023-05-20T09:06:55.593Z,23.83
2023-05-20T09:11:54.652Z,22.3
2023-05-20T09:16:55.860Z,22.12
2023-05-20T09:21:55.007Z,22.33
2023-05-20T09:26:54.683Z,23.56
2023-05-20T09:31:54.887Z,23.95
2023-05-20T09:36:55.093Z,23.95
2023-05-20T09:41:58.740Z,23.43
2023-05-20T09:46:55.123Z,24.93
2023-05-20T09:51:55.109Z,24.72
2023-05-20T09:56:54.797Z,24.59
2023-05-20T10:01:54.726Z,23.39
2023-05-20T10:07:03.786Z,22.82
2023-05-20T10:12:00.159Z,22.28
2023-05-20T10:16:59.294Z,22.15
2023-05-20T10:22:04.416Z,23.37
2023-05-20T10:26:58.804Z,22.47
2023-05-20T10:31:56.810Z,23.01
2023-05-20T10:37:01.478Z,23.66
2023-05-20T10:41:54.707Z,23.54
2023-05-20T10:51:55.479Z,22.83
2023-05-20T10:56:59.425Z,22.44
2023-05-20T11:01:54.791Z,21.78
2023-05-20T11:06:58.648Z,21.57
2023-05-20T11:11:54.933Z,22.83
2023-05-20T11:16:55.394Z,23.99
2023-05-20T11:21:54.922Z,24.89
2023-05-20T11:26:54.764Z,26.46
2023-05-20T11:31:55.902Z,26.73
2023-05-20T11:36:59.768Z,25.57
2023-05-20T11:41:54.741Z,24.45
2023-05-20T11:46:54.863Z,24.47
2023-05-20T11:51:55.171Z,25.2
2023-05-20T11:56:54.812Z,25.17
2023-05-20T12:01:54.829Z,24.27
2023-05-20T12:06:55.762Z,23.81
2023-05-20T12:11:56.543Z,25.08
2023-05-20T12:16:54.786Z,22.78
2023-05-20T12:21:54.831Z,22.78
2023-05-20T12:26:54.934Z,22.67
2023-05-20T12:31:55.020Z,23.76
2023-05-20T12:36:54.867Z,24.3
2023-05-20T12:41:54.879Z,24.45
2023-05-20T12:46:54.869Z,25.57
2023-05-20T12:51:54.826Z,24.18
2023-05-20T12:56:54.846Z,24.59
2023-05-20T13:01:54.908Z,24.42
2023-05-20T13:06:54.973Z,25.14
2023-05-20T13:11:54.851Z,23.92
2023-05-20T13:16:56.272Z,23.64
2023-05-20T13:21:55.539Z,25.53
2023-05-20T13:26:54.842Z,24.88
2023-05-20T13:31:54.908Z,24.4
2023-05-20T13:36:54.947Z,23.96
2023-05-20T13:41:55.009Z,24.61
2023-05-20T13:46:54.883Z,23.97
2023-05-20T13:51:55.034Z,24.44
2023-05-20T13:56:54.929Z,23.39
2023-05-20T14:01:55.061Z,22.99
2023-05-20T14:06:55.022Z,23.36
2023-05-20T14:11:54.945Z,22.97
2023-05-20T14:16:54.948Z,22.15
2023-05-20T14:21:54.948Z,22.13
2023-05-20T14:26:54.922Z,22.11
2023-05-20T14:31:55.115Z,21.96
2023-05-20T14:36:55.095Z,21.63
2023-05-20T14:41:54.975Z,22.2
2023-05-20T14:46:55.082Z,21.74
2023-05-20T14:51:54.941Z,21.44
2023-05-20T14:56:55.197Z,22.17
2023-05-20T15:01:55.073Z,22.32
2023-05-20T15:06:55.146Z,22.64
2023-05-20T15:11:54.981Z,22.46
2023-05-20T15:16:55.228Z,22.28
2023-05-20T15:21:55.355Z,22.46
2023-05-20T15:26:56.170Z,22.78
2023-05-20T15:31:55.131Z,22.48
2023-05-20T15:36:54.955Z,22.37
2023-05-20T15:41:55.119Z,22.62
2023-05-20T15:46:55.042Z,22.56
2023-05-20T15:52:02.932Z,21.16
2023-05-20T15:56:55.013Z,20.36
2023-05-20T16:01:55.080Z,20.13
2023-05-20T16:06:55.072Z,21.4
2023-05-20T16:11:56.090Z,22.02
2023-05-20T16:16:55.055Z,21.01
2023-05-20T16:21:55.020Z,20.35
2023-05-20T16:26:55.175Z,21.86
2023-05-20T16:31:55.111Z,21.35
2023-05-20T16:36:55.361Z,21.3
2023-05-20T16:41:55.147Z,20.76
2023-05-20T16:46:55.069Z,20.85
2023-05-20T16:51:55.194Z,21.53
2023-05-20T16:56:55.095Z,21.75
2023-05-20T17:01:55.144Z,21.38
2023-05-20T17:06:56.759Z,21.65
2023-05-20T17:11:55.779Z,22.03
2023-05-20T17:16:55.142Z,21.35
2023-05-20T17:21:55.099Z,21.52
2023-05-20T17:26:55.174Z,21.7
2023-05-20T17:31:55.120Z,21.46
2023-05-20T17:36:55.105Z,21.79
2023-05-20T17:41:55.410Z,21.02
2023-05-20T17:46:55.242Z,21.11
2023-05-20T17:51:55.105Z,20.13
2023-05-20T17:56:55.123Z,19.05
2023-05-20T18:01:55.179Z,18.59
2023-05-20T18:06:55.116Z,17.88
2023-05-20T18:11:55.330Z,17.57
2023-05-20T18:16:55.212Z,17.32
2023-05-20T18:21:55.424Z,17.17
2023-05-20T18:26:55.178Z,17.1
2023-05-20T18:31:55.537Z,16.99
2023-05-20T18:36:55.223Z,16.86
2023-05-20T18:41:55.208Z,16.82
2023-05-20T18:46:55.173Z,16.75
2023-05-20T18:51:55.174Z,16.6
2023-05-20T18:56:55.312Z,16.45
2023-05-20T19:01:55.242Z,16.39
2023-05-20T19:06:55.707Z,16.27
2023-05-20T19:11:58.801Z,16.24
2023-05-20T19:16:55.322Z,16.13
2023-05-20T19:21:55.201Z,16.03
2023-05-20T19:26:55.308Z,15.86
2023-05-20T19:31:55.596Z,15.65
2023-05-20T19:36:56.721Z,15.36
2023-05-20T19:41:55.253Z,14.98
2023-05-20T19:46:55.556Z,14.57
2023-05-20T19:51:55.188Z,14.28
2023-05-20T19:56:55.326Z,14.07
2023-05-20T20:01:55.289Z,13.93
2023-05-20T20:06:55.448Z,13.84
2023-05-20T20:11:55.302Z,13.77
2023-05-20T20:16:55.270Z,13.83
2023-05-20T20:21:56.591Z,13.82
2023-05-20T20:26:56.690Z,13.83
2023-05-20T20:31:55.367Z,13.77
2023-05-20T20:36:55.284Z,13.78
2023-05-20T20:41:55.289Z,13.82
2023-05-20T20:46:58.163Z,13.73
2023-05-20T20:51:56.698Z,13.68
2023-05-20T20:56:56.291Z,13.62
2023-05-20T21:01:55.321Z,13.46
2023-05-20T21:06:55.298Z,13.34
2023-05-20T21:11:57.047Z,13.21
2023-05-20T21:16:55.410Z,13.18
2023-05-20T21:21:55.360Z,13.23
2023-05-20T21:26:55.337Z,13.3
2023-05-20T21:31:55.383Z,13.41
2023-05-20T21:36:55.358Z,13.56
2023-05-20T21:41:55.427Z,13.67
2023-05-20T21:46:55.393Z,13.75
2023-05-20T21:51:55.374Z,13.78
2023-05-20T21:56:55.372Z,13.79
2023-05-20T22:01:56.246Z,13.84
2023-05-20T22:06:55.969Z,13.86
2023-05-20T22:11:56.123Z,13.92
2023-05-20T22:16:55.546Z,13.94
2023-05-20T22:21:55.546Z,13.96
2023-05-20T22:26:55.296Z,13.97
2023-05-20T22:31:55.513Z,13.96
2023-05-20T22:36:55.399Z,14
2023-05-20T22:41:55.486Z,14.03
2023-05-20T22:46:55.418Z,14
2023-05-20T22:51:55.775Z,13.98
2023-05-20T22:56:57.970Z,14
2023-05-20T23:01:55.484Z,13.99
2023-05-20T23:06:59.283Z,14.01
2023-05-20T23:11:55.425Z,13.97
2023-05-20T23:16:55.419Z,13.97
2023-05-20T23:21:55.576Z,13.98
2023-05-20T23:26:55.433Z,13.98
2023-05-20T23:31:55.418Z,13.97
2023-05-20T23:36:55.443Z,13.95
2023-05-20T23:41:55.570Z,13.93
2023-05-20T23:46:55.447Z,13.87
2023-05-20T23:51:55.452Z,13.86
2023-05-20T23:56:55.486Z,13.86
